createdAt,value
2017-11-06T00:01:54.098Z,18.95
2017-11-06T00:04:22.450Z,18.62
2017-11-06T00:06:49.982Z,19.50
2017-11-06T00:09:17.515Z,22.80
2017-11-06T00:11:45.128Z,20.85
2017-11-06T00:14:12.669Z,23.20
2017-11-06T00:16:40.205Z,20.80
2017-11-06T00:19:09.223Z,18.67
2017-11-06T00:21:36.787Z,19.40
2017-11-06T00:24:05.677Z,22.50
2017-11-06T00:26:33.248Z,20.02
2017-11-06T00:29:00.812Z,16.92
2017-11-06T00:31:28.343Z,17.50
2017-11-06T00:33:55.937Z,18.58
2017-11-06T00:36:23.473Z,18.33
2017-11-06T00:38:51.004Z,17.17
2017-11-06T00:41:18.689Z,20.00
2017-11-06T00:43:46.222Z,23.25
2017-11-06T00:46:14.073Z,21.35
2017-11-06T00:48:42.377Z,22.40
2017-11-06T00:51:09.910Z,21.60
2017-11-06T00:53:38.342Z,19.17
2017-11-06T00:56:05.874Z,17.98
2017-11-06T00:58:33.418Z,17.67
2017-11-06T01:01:01.781Z,18.90
2017-11-06T01:03:30.108Z,20.75
2017-11-06T01:05:57.648Z,23.25
2017-11-06T01:08:25.241Z,27.23
2017-11-06T01:10:52.768Z,22.85
2017-11-06T01:13:20.308Z,26.00
2017-11-06T01:15:48.704Z,25.50
2017-11-06T01:18:16.272Z,28.50
2017-11-06T01:20:43.802Z,27.62
2017-11-06T01:23:12.150Z,28.02
2017-11-06T01:25:39.685Z,34.60
2017-11-06T01:28:07.293Z,29.40
2017-11-06T01:30:34.820Z,28.95
2017-11-06T01:33:02.353Z,31.98
2017-11-06T01:35:29.981Z,27.85
2017-11-06T01:37:58.281Z,29.65
2017-11-06T01:40:25.869Z,33.00
2017-11-06T01:42:53.407Z,32.20
2017-11-06T01:45:21.428Z,35.83
2017-11-06T01:47:48.962Z,34.55
2017-11-06T01:50:16.492Z,33.38
2017-11-06T01:52:44.063Z,36.67
2017-11-06T01:55:11.596Z,38.53
2017-11-06T01:57:39.929Z,41.22
2017-11-06T02:00:07.465Z,32.55
2017-11-06T02:02:35.037Z,44.08
2017-11-06T02:05:02.567Z,37.80
2017-11-06T02:07:30.187Z,41.83
2017-11-06T02:09:57.769Z,36.63
2017-11-06T02:12:26.065Z,39.67
2017-11-06T02:14:53.592Z,36.20
2017-11-06T02:17:21.286Z,41.03
2017-11-06T02:19:48.909Z,41.83
2017-11-06T02:22:16.489Z,38.92
2017-11-06T02:24:44.786Z,42.55
2017-11-06T02:27:12.898Z,41.75
2017-11-06T02:29:40.419Z,42.15
2017-11-06T02:32:07.953Z,46.83
2017-11-06T02:34:36.298Z,50.08
2017-11-06T02:37:03.869Z,45.22
2017-11-06T02:39:31.397Z,44.50
2017-11-06T02:41:58.932Z,45.67
2017-11-06T02:44:26.510Z,47.60
2017-11-06T02:46:54.449Z,46.78
2017-11-06T02:49:22.979Z,44.20
2017-11-06T02:51:50.533Z,46.25
2017-11-06T02:54:18.110Z,46.78
2017-11-06T02:56:45.789Z,50.35
2017-11-06T02:59:13.370Z,51.33
2017-11-06T03:01:41.674Z,49.70
2017-11-06T03:04:09.245Z,46.92
2017-11-06T03:06:36.777Z,45.70
2017-11-06T03:09:05.112Z,50.70
2017-11-06T03:11:32.646Z,49.88
2017-11-06T03:14:06.179Z,47.00
2017-11-06T03:16:33.717Z,48.20
2017-11-06T03:19:01.424Z,46.72
2017-11-06T03:21:29.022Z,48.87
2017-11-06T03:23:56.557Z,53.95
2017-11-06T03:26:24.892Z,47.05
2017-11-06T03:28:52.472Z,46.88
2017-11-06T03:31:20.009Z,48.15
2017-11-06T03:33:47.636Z,47.60
2017-11-06T03:36:15.177Z,47.40
2017-11-06T03:38:42.721Z,47.03
2017-11-06T03:41:11.133Z,47.15
2017-11-06T03:43:38.738Z,47.53
2017-11-06T03:46:06.289Z,45.17
2017-11-06T03:48:34.065Z,46.10
2017-11-06T03:51:01.599Z,44.85
2017-11-06T03:53:29.174Z,47.47
2017-11-06T03:55:56.708Z,49.13
2017-11-06T03:58:24.394Z,48.40
2017-11-06T04:00:51.943Z,45.97
2017-11-06T04:03:19.523Z,45.50
2017-11-06T04:05:47.058Z,43.45
2017-11-06T04:08:14.594Z,45.83
2017-11-06T04:10:42.182Z,41.45
2017-11-06T04:13:10.516Z,43.22
2017-11-06T04:15:38.818Z,47.25
2017-11-06T04:18:06.434Z,49.53
2017-11-06T04:20:34.370Z,50.33
2017-11-06T04:23:01.898Z,42.00
2017-11-06T04:25:29.430Z,43.75
2017-11-06T04:27:57.781Z,43.65
2017-11-06T04:30:25.381Z,46.67
2017-11-06T04:32:53.686Z,48.75
2017-11-06T04:35:21.223Z,48.53
2017-11-06T04:37:49.625Z,45.70
2017-11-06T04:40:17.157Z,51.20
2017-11-06T04:42:52.362Z,51.08
2017-11-06T04:45:19.893Z,48.38
2017-11-06T04:47:47.424Z,46.97
2017-11-06T04:50:21.078Z,53.35
2017-11-06T04:52:48.622Z,51.30
2017-11-06T04:55:16.333Z,49.92
2017-11-06T04:57:44.683Z,51.35
2017-11-06T05:00:12.226Z,45.83
2017-11-06T05:02:39.804Z,50.30
2017-11-06T05:05:07.358Z,53.95
2017-11-06T05:07:34.975Z,54.65
2017-11-06T05:10:02.553Z,51.97
2017-11-06T05:12:30.091Z,51.22
2017-11-06T05:14:58.095Z,56.05
2017-11-06T05:17:25.628Z,54.70
2017-11-06T05:19:53.163Z,54.28
2017-11-06T05:22:21.499Z,57.92
2017-11-06T05:24:49.097Z,54.88
2017-11-06T05:27:17.403Z,56.22
2017-11-06T05:29:44.946Z,59.67
2017-11-06T05:32:13.366Z,54.38
2017-11-06T05:34:40.949Z,60.80
2017-11-06T05:37:08.506Z,57.40
2017-11-06T05:39:36.042Z,55.92
2017-11-06T05:42:04.393Z,61.03
2017-11-06T05:44:32.073Z,54.13
2017-11-06T05:46:59.665Z,53.75
2017-11-06T05:49:28.144Z,57.83
2017-11-06T05:51:55.789Z,52.20
2017-11-06T05:54:23.338Z,54.55
2017-11-06T05:56:50.912Z,57.22
2017-11-06T05:59:18.446Z,59.53
2017-11-06T06:01:46.022Z,51.72
2017-11-06T06:04:13.560Z,58.85
2017-11-06T06:06:41.271Z,58.00
2017-11-06T06:09:08.820Z,59.65
2017-11-06T06:11:36.358Z,58.42
2017-11-06T06:14:08.862Z,60.25
2017-11-06T06:16:36.408Z,56.20
2017-11-06T06:19:03.942Z,59.22
2017-11-06T06:21:33.988Z,55.20
2017-11-06T06:24:01.526Z,53.45
2017-11-06T06:26:29.053Z,60.72
2017-11-06T06:28:57.425Z,65.70
2017-11-06T06:31:24.961Z,55.08
2017-11-06T06:33:52.505Z,59.55
2017-11-06T06:36:20.080Z,64.68
2017-11-06T06:38:47.660Z,68.50
2017-11-06T06:41:15.239Z,67.07
2017-11-06T06:43:43.628Z,67.93
2017-11-06T06:46:11.969Z,64.43
2017-11-06T06:48:39.513Z,70.30
2017-11-06T06:51:07.141Z,69.75
2017-11-06T06:53:34.744Z,65.00
2017-11-06T06:56:02.274Z,65.78
2017-11-06T06:58:30.583Z,67.22
2017-11-06T07:00:58.293Z,69.62
2017-11-06T07:03:26.251Z,68.90
2017-11-06T07:05:54.599Z,73.82
2017-11-06T07:08:22.141Z,85.22
2017-11-06T07:10:50.107Z,67.30
2017-11-06T07:13:17.763Z,156.30
2017-11-06T07:15:45.297Z,73.62
2017-11-06T07:18:13.090Z,123.75
2017-11-06T07:20:40.624Z,78.00
2017-11-06T07:23:08.153Z,70.93
2017-11-06T07:25:35.730Z,73.22
2017-11-06T07:28:04.078Z,77.80
2017-11-06T07:30:31.614Z,66.75
2017-11-06T07:32:59.205Z,67.62
2017-11-06T07:35:26.737Z,63.92
2017-11-06T07:37:54.316Z,67.70
2017-11-06T07:40:21.846Z,66.75
2017-11-06T07:42:49.423Z,64.32
2017-11-06T07:45:16.966Z,71.62
2017-11-06T07:47:45.747Z,69.43
2017-11-06T07:50:13.296Z,69.75
2017-11-06T07:52:41.030Z,63.22
2017-11-06T07:55:09.333Z,75.25
2017-11-06T07:57:36.883Z,64.68
2017-11-06T08:00:05.719Z,62.97
2017-11-06T08:02:33.305Z,68.97
2017-11-06T08:05:00.964Z,60.33
2017-11-06T08:07:28.657Z,66.12
2017-11-06T08:09:56.999Z,56.78
2017-11-06T08:12:25.253Z,63.00
2017-11-06T08:14:52.809Z,66.93
2017-11-06T08:17:20.341Z,63.50
2017-11-06T08:19:47.926Z,67.35
2017-11-06T08:22:15.461Z,67.30
2017-11-06T08:24:42.997Z,67.28
2017-11-06T08:27:16.158Z,66.78
2017-11-06T08:29:43.702Z,62.90
2017-11-06T08:32:11.261Z,57.78
2017-11-06T08:34:38.893Z,59.35
2017-11-06T08:37:06.516Z,58.47
2017-11-06T08:39:34.830Z,61.20
2017-11-06T08:42:02.460Z,49.08
2017-11-06T08:44:30.270Z,51.35
2017-11-06T08:46:57.813Z,59.20
2017-11-06T08:49:25.446Z,50.25
2017-11-06T08:51:53.378Z,51.42
2017-11-06T08:54:20.905Z,57.28
2017-11-06T08:56:48.538Z,51.00
2017-11-06T08:59:16.873Z,53.25
2017-11-06T09:01:44.429Z,53.17
2017-11-06T09:04:12.040Z,50.85
2017-11-06T09:06:40.345Z,49.90
2017-11-06T09:09:07.892Z,50.35
2017-11-06T09:11:36.345Z,54.25
2017-11-06T09:14:03.969Z,52.17
2017-11-06T09:16:31.496Z,49.72
2017-11-06T09:18:59.080Z,51.55
2017-11-06T09:21:26.620Z,49.65
2017-11-06T09:23:54.225Z,53.78
2017-11-06T09:26:21.756Z,52.33
2017-11-06T09:28:49.289Z,48.97
2017-11-06T09:31:17.633Z,69.50
2017-11-06T09:33:45.168Z,46.45
2017-11-06T09:36:12.814Z,48.15
2017-11-06T09:38:40.561Z,44.88
2017-11-06T09:41:08.873Z,49.65
2017-11-06T09:43:36.492Z,45.55
2017-11-06T09:46:05.268Z,47.58
2017-11-06T09:48:33.585Z,49.10
2017-11-06T09:51:01.188Z,52.92
2017-11-06T09:53:28.728Z,49.53
2017-11-06T09:55:56.711Z,48.85
2017-11-06T09:58:24.277Z,42.00
2017-11-06T10:00:51.813Z,43.35
2017-11-06T10:03:19.496Z,51.28
2017-11-06T10:05:47.033Z,49.60
2017-11-06T10:08:14.673Z,48.50
2017-11-06T10:10:42.204Z,47.83
2017-11-06T10:13:10.601Z,47.38
2017-11-06T10:15:38.137Z,47.25
2017-11-06T10:18:06.488Z,45.70
2017-11-06T10:20:34.013Z,48.95
2017-11-06T10:23:04.358Z,71.37
2017-11-06T10:25:31.893Z,50.78
2017-11-06T10:27:59.467Z,56.58
2017-11-06T10:30:27.006Z,48.08
2017-11-06T10:32:54.559Z,48.80
2017-11-06T10:35:23.008Z,47.72
2017-11-06T10:37:50.557Z,48.85
2017-11-06T10:40:18.109Z,42.80
2017-11-06T10:42:45.710Z,53.87
2017-11-06T10:45:14.008Z,52.60
2017-11-06T10:47:41.537Z,47.45
2017-11-06T10:50:09.113Z,49.47
2017-11-06T10:52:37.412Z,39.97
2017-11-06T10:55:05.124Z,38.45
2017-11-06T10:57:32.662Z,40.65
2017-11-06T11:00:00.381Z,37.85
2017-11-06T11:02:28.683Z,44.17
2017-11-06T11:04:57.853Z,42.08
2017-11-06T11:07:26.197Z,34.85
2017-11-06T11:09:55.070Z,39.22
2017-11-06T11:12:22.600Z,41.75
2017-11-06T11:14:50.140Z,39.33
2017-11-06T11:17:18.990Z,40.12
2017-11-06T11:19:46.533Z,38.53
2017-11-06T11:22:14.061Z,40.17
2017-11-06T11:24:41.657Z,37.17
2017-11-06T11:27:09.201Z,39.80
2017-11-06T11:29:36.738Z,37.40
2017-11-06T11:32:04.840Z,42.05
2017-11-06T11:34:32.397Z,41.17
2017-11-06T11:37:00.009Z,38.90
2017-11-06T11:39:28.321Z,39.67
2017-11-06T11:41:55.873Z,44.65
2017-11-06T11:44:23.622Z,40.58
2017-11-06T11:46:51.921Z,42.33
2017-11-06T11:49:19.502Z,41.15
2017-11-06T11:51:47.041Z,42.53
2017-11-06T11:54:14.645Z,42.47
2017-11-06T11:56:42.180Z,39.88
2017-11-06T11:59:12.512Z,47.72
2017-11-06T12:01:40.058Z,44.42
2017-11-06T12:04:07.600Z,46.35
2017-11-06T12:06:35.322Z,38.03
2017-11-06T12:09:02.904Z,43.70
2017-11-06T12:11:31.206Z,43.22
2017-11-06T12:13:59.131Z,42.78
2017-11-06T12:16:26.744Z,42.58
2017-11-06T12:18:54.324Z,39.28
2017-11-06T12:21:21.870Z,42.80
2017-11-06T12:23:49.408Z,43.25
2017-11-06T12:26:16.989Z,41.65
2017-11-06T12:28:44.522Z,39.60
2017-11-06T12:31:12.160Z,42.85
2017-11-06T12:33:39.698Z,38.67
2017-11-06T12:36:07.292Z,40.75
2017-11-06T12:38:35.589Z,40.80
2017-11-06T12:41:03.169Z,42.97
2017-11-06T12:43:30.704Z,44.20
2017-11-06T12:45:58.409Z,48.42
2017-11-06T12:48:26.129Z,50.90
2017-11-06T12:50:53.670Z,47.47
2017-11-06T12:53:21.964Z,40.67
2017-11-06T12:55:49.567Z,45.47
2017-11-06T12:58:17.105Z,46.70
2017-11-06T13:00:44.635Z,45.58
2017-11-06T13:03:13.356Z,45.45
2017-11-06T13:05:41.020Z,48.08
2017-11-06T13:08:08.557Z,43.17
2017-11-06T13:10:36.141Z,41.63
2017-11-06T13:13:03.695Z,44.85
2017-11-06T13:15:31.414Z,40.58
2017-11-06T13:17:59.769Z,52.15
2017-11-06T13:20:27.500Z,43.05
2017-11-06T13:22:55.181Z,42.13
2017-11-06T13:25:22.714Z,37.97
2017-11-06T13:27:50.247Z,47.42
2017-11-06T13:30:18.645Z,44.00
2017-11-06T13:32:46.183Z,43.45
2017-11-06T13:35:13.713Z,41.70
2017-11-06T13:37:41.465Z,41.13
2017-11-06T13:40:09.774Z,41.08
2017-11-06T13:42:37.355Z,44.92
2017-11-06T13:45:04.900Z,38.45
2017-11-06T13:47:32.609Z,41.85
2017-11-06T13:50:00.977Z,43.97
2017-11-06T13:52:28.517Z,44.85
2017-11-06T13:54:56.141Z,44.40
2017-11-06T13:57:23.689Z,43.25
2017-11-06T13:59:52.821Z,42.22
2017-11-06T14:02:20.507Z,39.33
2017-11-06T14:04:48.039Z,45.08
2017-11-06T14:07:17.007Z,41.33
2017-11-06T14:09:44.581Z,40.15
2017-11-06T14:12:12.163Z,38.35
2017-11-06T14:14:39.697Z,37.15
2017-11-06T14:17:07.594Z,36.83
2017-11-06T14:19:35.131Z,36.05
2017-11-06T14:22:02.712Z,40.33
2017-11-06T14:24:30.254Z,40.15
2017-11-06T14:26:57.833Z,36.78
2017-11-06T14:29:25.375Z,39.00
2017-11-06T14:31:53.144Z,35.90
2017-11-06T14:34:20.685Z,38.58
2017-11-06T14:36:48.273Z,40.65
2017-11-06T14:39:15.833Z,37.90
2017-11-06T14:41:43.376Z,36.72
2017-11-06T14:44:10.958Z,37.15
2017-11-06T14:46:38.499Z,39.08
2017-11-06T14:49:11.196Z,38.35
2017-11-06T14:51:38.728Z,38.13
2017-11-06T14:54:06.389Z,37.13
2017-11-06T14:56:33.929Z,37.20
2017-11-06T14:59:02.278Z,39.47
2017-11-06T15:01:29.822Z,39.47
2017-11-06T15:03:57.430Z,40.12
2017-11-06T15:06:25.729Z,39.05
2017-11-06T15:08:53.372Z,33.10
2017-11-06T15:11:21.721Z,36.85
2017-11-06T15:13:49.267Z,33.80
2017-11-06T15:16:16.893Z,37.45
2017-11-06T15:18:44.431Z,34.20
2017-11-06T15:21:12.785Z,31.95
2017-11-06T15:23:40.368Z,23.85
2017-11-06T15:26:08.217Z,22.27
2017-11-06T15:28:36.542Z,21.05
2017-11-06T15:31:04.120Z,44.20
2017-11-06T15:33:31.658Z,27.17
2017-11-06T15:35:59.202Z,25.02
2017-11-06T15:38:26.797Z,20.08
2017-11-06T15:40:54.341Z,24.63
2017-11-06T15:43:21.965Z,28.38
2017-11-06T15:45:50.278Z,25.70
2017-11-06T15:48:17.857Z,21.87
2017-11-06T15:50:45.394Z,29.37
2017-11-06T15:53:12.981Z,16.87
2017-11-06T15:55:40.520Z,19.10
2017-11-06T15:58:08.355Z,22.42
2017-11-06T16:00:36.659Z,15.98
2017-11-06T16:03:04.242Z,17.83
2017-11-06T16:05:31.787Z,11.30
2017-11-06T16:07:59.352Z,10.82
2017-11-06T16:10:27.029Z,12.07
2017-11-06T16:12:54.722Z,14.68
2017-11-06T16:15:23.102Z,53.53
2017-11-06T16:17:51.412Z,69.72
2017-11-06T16:20:19.050Z,52.85
2017-11-06T16:22:49.832Z,40.17
2017-11-06T16:25:17.365Z,24.70
2017-11-06T16:27:45.018Z,26.30
2017-11-06T16:30:12.558Z,27.83
2017-11-06T16:32:40.931Z,20.05
2017-11-06T16:35:08.465Z,40.35
2017-11-06T16:37:35.998Z,49.92
2017-11-06T16:40:03.688Z,35.88
2017-11-06T16:42:31.222Z,46.90
2017-11-06T16:45:00.044Z,60.28
2017-11-06T16:47:27.908Z,29.75
2017-11-06T16:49:55.436Z,23.33
2017-11-06T16:52:22.966Z,28.05
2017-11-06T16:54:51.324Z,25.55
2017-11-06T16:57:18.858Z,25.27
2017-11-06T16:59:46.394Z,26.80
2017-11-06T17:02:13.965Z,24.08
2017-11-06T17:04:41.971Z,23.80
2017-11-06T17:07:09.505Z,25.98
2017-11-06T17:09:37.038Z,25.42
2017-11-06T17:12:05.373Z,22.35
2017-11-06T17:14:33.504Z,25.52
2017-11-06T17:17:01.048Z,24.25
2017-11-06T17:19:28.586Z,22.83
2017-11-06T17:21:57.153Z,30.35
2017-11-06T17:24:25.447Z,24.27
2017-11-06T17:26:53.784Z,18.77
2017-11-06T17:29:21.331Z,19.20
2017-11-06T17:31:48.928Z,17.12
2017-11-06T17:34:17.241Z,19.23
2017-11-06T17:36:44.773Z,16.27
2017-11-06T17:39:13.272Z,14.87
2017-11-06T17:41:40.813Z,19.95
2017-11-06T17:44:09.194Z,18.98
2017-11-06T17:46:37.550Z,18.98
2017-11-06T17:49:05.090Z,23.55
2017-11-06T17:51:32.784Z,26.30
2017-11-06T17:54:01.088Z,37.30
2017-11-06T17:56:28.622Z,75.32
2017-11-06T17:58:56.215Z,130.57
2017-11-06T18:01:23.796Z,97.90
2017-11-06T18:03:51.376Z,38.40
2017-11-06T18:06:19.285Z,33.88
2017-11-06T18:08:46.863Z,29.20
2017-11-06T18:11:14.398Z,26.50
2017-11-06T18:13:43.053Z,24.20
2017-11-06T18:16:10.602Z,24.37
2017-11-06T18:18:38.171Z,27.73
2017-11-06T18:21:05.748Z,25.23
2017-11-06T18:23:33.320Z,25.77
2017-11-06T18:26:06.069Z,35.47
2017-11-06T18:28:33.601Z,54.45
2017-11-06T18:31:01.137Z,44.08
2017-11-06T18:33:29.728Z,40.22
2017-11-06T18:35:58.032Z,77.03
2017-11-06T18:38:25.573Z,146.65
2017-11-06T18:40:53.157Z,167.75
2017-11-06T18:43:20.732Z,37.88
2017-11-06T18:45:48.273Z,78.35
2017-11-06T18:48:16.002Z,91.57
2017-11-06T18:50:44.311Z,64.90
2017-11-06T18:53:11.865Z,38.08
2017-11-06T18:55:39.472Z,61.20
2017-11-06T18:58:07.069Z,91.00
2017-11-06T19:00:34.621Z,151.43
2017-11-06T19:03:03.002Z,141.00
2017-11-06T19:05:30.561Z,83.55
2017-11-06T19:07:58.990Z,54.17
2017-11-06T19:10:26.573Z,93.80
2017-11-06T19:12:54.113Z,61.95
2017-11-06T19:15:21.811Z,41.60
2017-11-06T19:17:50.186Z,52.20
2017-11-06T19:20:17.721Z,32.38
2017-11-06T19:22:45.262Z,30.80
2017-11-06T19:25:12.896Z,30.75
2017-11-06T19:27:40.894Z,26.73
2017-11-06T19:30:08.421Z,38.30
2017-11-06T19:32:35.956Z,39.78
2017-11-06T19:35:03.643Z,50.20
2017-11-06T19:37:31.183Z,44.38
2017-11-06T19:39:59.483Z,53.35
2017-11-06T19:42:27.105Z,44.95
2017-11-06T19:44:54.644Z,125.93
2017-11-06T19:47:22.184Z,29.75
2017-11-06T19:49:49.751Z,28.23
2017-11-06T19:52:17.290Z,45.95
2017-11-06T19:54:44.883Z,37.10
2017-11-06T19:57:12.429Z,32.40
2017-11-06T19:59:39.971Z,32.03
2017-11-06T20:02:07.550Z,39.55
2017-11-06T20:04:35.531Z,31.25
2017-11-06T20:07:03.061Z,27.35
2017-11-06T20:09:30.762Z,27.48
2017-11-06T20:11:58.346Z,25.48
2017-11-06T20:14:26.761Z,29.08
2017-11-06T20:16:54.296Z,24.87
2017-11-06T20:19:27.549Z,26.08
2017-11-06T20:21:55.088Z,29.25
2017-11-06T20:24:22.622Z,23.55
2017-11-06T20:26:50.241Z,30.23
2017-11-06T20:29:17.773Z,29.95
2017-11-06T20:31:45.306Z,27.75
2017-11-06T20:34:12.899Z,27.27
2017-11-06T20:36:40.428Z,26.98
2017-11-06T20:39:07.965Z,36.05
2017-11-06T20:41:36.310Z,33.20
2017-11-06T20:44:03.842Z,29.10
2017-11-06T20:46:31.833Z,31.10
2017-11-06T20:48:59.415Z,40.78
2017-11-06T20:51:26.952Z,31.12
2017-11-06T20:53:54.484Z,33.97
2017-11-06T20:56:22.059Z,28.20
2017-11-06T20:58:49.601Z,28.58
2017-11-06T21:01:17.206Z,28.55
2017-11-06T21:03:44.745Z,25.65
2017-11-06T21:06:12.278Z,23.87
2017-11-06T21:08:39.850Z,25.05
2017-11-06T21:11:07.429Z,28.40
2017-11-06T21:13:34.966Z,22.98
2017-11-06T21:16:02.720Z,22.48
2017-11-06T21:18:30.258Z,24.40
2017-11-06T21:20:58.601Z,19.95
2017-11-06T21:23:26.137Z,21.83
2017-11-06T21:25:57.568Z,25.73
2017-11-06T21:28:25.106Z,23.75
2017-11-06T21:30:53.402Z,25.37
2017-11-06T21:33:20.978Z,22.73
2017-11-06T21:35:48.504Z,29.27
2017-11-06T21:38:16.867Z,30.20
2017-11-06T21:40:44.408Z,31.37
2017-11-06T21:43:12.720Z,27.98
2017-11-06T21:45:40.301Z,27.27
2017-11-06T21:48:11.816Z,26.75
2017-11-06T21:50:39.394Z,24.17
2017-11-06T21:53:07.697Z,21.90
2017-11-06T21:55:35.322Z,23.52
2017-11-06T21:58:02.852Z,24.83
2017-11-06T22:00:31.233Z,21.35
2017-11-06T22:02:59.540Z,23.33
2017-11-06T22:05:27.106Z,18.95
2017-11-06T22:07:54.682Z,23.35
2017-11-06T22:10:22.561Z,21.55
2017-11-06T22:12:50.105Z,20.23
2017-11-06T22:15:17.645Z,20.42
2017-11-06T22:17:45.501Z,24.92
2017-11-06T22:20:15.217Z,18.98
2017-11-06T22:22:42.834Z,23.42
2017-11-06T22:25:10.370Z,20.58
2017-11-06T22:27:38.234Z,22.33
2017-11-06T22:30:05.777Z,25.40
2017-11-06T22:32:33.327Z,23.50
2017-11-06T22:35:00.913Z,23.87
2017-11-06T22:37:28.522Z,20.70
2017-11-06T22:39:56.832Z,20.23
2017-11-06T22:42:24.374Z,23.27
2017-11-06T22:44:52.730Z,22.05
2017-11-06T22:47:20.398Z,24.58
2017-11-06T22:49:48.704Z,22.27
2017-11-06T22:52:16.280Z,21.20
2017-11-06T22:54:43.973Z,26.00
2017-11-06T22:57:11.516Z,23.15
2017-11-06T22:59:39.052Z,22.23
2017-11-06T23:02:06.945Z,24.95
2017-11-06T23:04:34.475Z,22.02
2017-11-06T23:07:02.009Z,22.98
2017-11-06T23:09:30.703Z,26.42
2017-11-06T23:11:59.007Z,23.77
2017-11-06T23:14:27.313Z,24.27
2017-11-06T23:16:59.886Z,25.02
2017-11-06T23:19:27.617Z,29.12
2017-11-06T23:21:55.167Z,23.77
2017-11-06T23:24:22.747Z,22.60
2017-11-06T23:26:50.280Z,19.65
2017-11-06T23:29:18.653Z,21.73
2017-11-06T23:31:46.952Z,22.23
2017-11-06T23:34:14.489Z,20.75
2017-11-06T23:36:42.854Z,27.30
2017-11-06T23:39:10.390Z,24.73
2017-11-06T23:41:37.920Z,23.62
2017-11-06T23:44:10.426Z,21.83
2017-11-06T23:46:38.016Z,19.50
2017-11-06T23:49:06.319Z,22.08
2017-11-06T23:51:34.124Z,20.25
2017-11-06T23:54:01.653Z,20.33
2017-11-06T23:56:29.187Z,24.60
2017-11-06T23:59:02.365Z,19.17
